WEATHER DATA

YESTERDAY
Time Temp. Dewp. Hum. Wind dir Wind speed Wind gust Bar. 1h Prec. 24h Prec.
00:27 8.6 7.7 94 0 0.3 1021.3 0.0000 0.0000
00:37 8.6 7.7 94 0 0.3 1021.3 0.0000 0.0000
00:46 8.6 7.7 94 0 0.6 1021.3 0.0000 0.0000
01:07 8.7 7.9 95 242 0.6 0.8 1021.8 0.0000 0.0000
01:16 8.7 7.9 95 237 0.3 0.6 1021.9 0.0000 0.0000
01:27 8.8 8 95 270 0.3 0.6 1021.9 0.0000 0.0000
01:47 8.9 8.1 95 0 0.3 1022.2 0.0000 0.0000
01:57 9 8.2 95 0 0.6 1022.2 0.0000 0.0000
02:07 9 8.4 96 0 0.3 1022.4 0.0000 0.0000
02:18 9 8.4 96 0 0.6 1022.5 0.0000 0.0000
02:28 9 8.4 96 0 0.3 1022.6 0.0000 0.0000
02:37 9 8.4 96 0 0.3 1022.8 0.0000 0.0000
02:48 9 8.4 96 0 0.3 1022.9 0.0000 0.0000
02:58 9 8.4 96 0 0.3 1022.9 0.0000 0.0000
03:08 9 8.4 96 270 0.3 0.6 1023 0.0000 0.0000
03:18 9 8.4 96 270 0.3 0.6 1023.3 0.0000 0.0000
03:29 9.1 8.5 96 0 0.3 1023.3 0.0000 0.0000
03:39 9.2 8.7 97 270 0.6 0.8 1023.3 0.0000 0.0000
03:48 9.2 8.7 97 270 0.6 1.4 1023.7 0.0000 0.0000
03:59 9.3 8.8 97 270 0.3 0.8 1023.7 0.0000 0.0000
04:09 9.3 8.8 97 270 0.3 0.8 1023.8 0.0000 0.0000
04:19 9.4 8.9 97 270 0.3 0.8 1024.1 0.0000 0.0000
04:29 9.4 8.9 97 270 0.3 0.8 1024.1 0.0000 0.0000
04:39 9.5 9 97 270 0.6 1.4 1024.4 0.0000 0.0000
04:49 9.6 9.1 97 315 0.3 0.8 1024.6 0.0000 0.0000
04:59 9.6 9.1 97 303 0.3 0.6 1024.8 0.0000 0.0000
05:09 9.6 9.1 97 270 0.3 0.8 1024.9 0.0000 0.0000
05:20 9.7 9.2 97 270 0.3 0.8 1025.1 0.0000 0.0000
05:30 9.8 9.3 97 323 0.6 1.4 1025.1 0.0000 0.0000
05:39 9.9 9.4 97 324 0.6 1.4 1025.1 0.0000 0.0000
05:50 10 9.5 97 306 0.3 1.4 1025.4 0.0000 0.0000
06:00 10.1 9.6 97 270 0.3 0.8 1025.5 0.0000 0.0000
06:10 10.3 9.8 97 312 0.6 1.7 1025.6 0.0000 0.0000
06:20 10.5 10.2 98 270 0.6 1.4 1026 0.0000 0.0000
06:30 10.7 10.2 97 292 0.6 1.7 1026 0.0000 0.0000
06:40 10.9 10.4 97 289 0.6 1.4 1026.3 0.0000 0.0000
06:50 11.1 10.6 97 335 0.8 1.7 1026.4 0.0000 0.0000
07:01 11.2 10.6 96 317 0.6 1.4 1026.4 0.0000 0.0000
07:11 11.3 10.7 96 345 0.8 1.7 1026.5 0.0000 0.0000
07:30 11.8 11.2 96 0 0.8 2.5 1026.9 0.0000 0.0000
07:41 12 11.2 95 353 0.6 2.2 1027.1 0.0000 0.0000
08:01 12.2 11.3 94 0 0.8 2.8 1027.5 0.0000 0.0000
08:11 12.3 11.4 94 38 0.6 1.4 1027.9 0.0000 0.0000
08:31 12.4 11.1 92 6 0.6 1.7 1028.3 0.0000 0.0000
08:41 12.6 11.3 92 30 0.3 1.7 1028.4 0.0000 0.0000
09:02 12.9 11.3 90 21 0.6 2.8 1028.6 0.0000 0.0000
09:11 13.1 11.5 90 12 0.3 1.4 1029 0.0000 0.0000
09:22 13.4 11.6 89 355 0.6 1.9 1029 0.0000 0.0000
09:32 13.4 11.3 87 6 0.6 1.7 1029.1 0.0000 0.0000
09:42 13.7 11.6 87 13 0.3 1.9 1029.4 0.0000 0.0000
09:52 14.1 12 87 55 0.3 1.7 1029.5 0.0000 0.0000
10:36 14.4 11.6 83 29 0.3 1.4 1030.1 0.0000 0.0000
10:46 14.5 11.5 82 356 0.6 3.3 1030.2 0.0000 0.0000
10:56 14.5 11.3 81 45 0.3 0.8 1030.5 0.0000 0.0000
11:07 14.7 11.1 79 356 0.6 1.9 1030.4 0.0000 0.0000
11:16 14.8 11 78 0 0.3 1.7 1030.6 0.0000 0.0000
11:26 14.9 10.9 77 7 0.6 2.2 1030.5 0.0000 0.0000
11:37 15 11.2 78 347 0.6 2.2 1030.8 0.0000 0.0000
11:47 15 11.4 79 350 0.6 2.2 1030.8 0.0000 0.0000
11:57 15.5 11.5 77 60 0.3 0.8 1031 0.0000 0.0000
12:17 16.4 12 75 56 0.6 1.9 1031.1 0.0000 0.0000
12:27 16.5 11.6 73 40 0.8 2.2 1031.4 0.0000 0.0000
12:37 16.4 11.8 74 74 0.8 2.5 1031.5 0.0000 0.0000
12:47 16.7 11.8 73 71 0.6 2.8 1031.5 0.0000 0.0000
12:58 17.1 11.8 71 45 0.6 1.9 1031.4 0.0000 0.0000
13:07 17.6 11.9 69 41 0.8 2.2 1031.5 0.0000 0.0000
13:17 17.3 10.9 66 38 0.6 2.8 1031.6 0.0000 0.0000
13:28 17.1 10.5 65 36 0.3 1.4 1031.5 0.0000 0.0000
13:38 17.4 10.3 63 38 0.6 1.9 1031.7 0.0000 0.0000
13:48 17.9 11.2 65 47 0.8 2.5 1031.9 0.0000 0.0000
13:58 17.2 10.1 63 42 0.6 1.7 1031.9 0.0000 0.0000
14:08 17.9 11.2 65 72 1.4 4.4 1032 0.0000 0.0000
14:18 18.5 10.6 60 59 0.8 2.8 1032.2 0.0000 0.0000
14:28 18.8 10.6 59 45 0.6 1.9 1032.2 0.0000 0.0000
14:39 19.2 10.7 58 81 1.4 3.6 1032.2 0.0000 0.0000
14:48 19.7 10.7 56 52 0.6 2.2 1032.3 0.0000 0.0000
14:58 19.5 11 58 37 0.6 1.9 1032.6 0.0000 0.0000
15:08 19.9 11.7 59 79 1.4 3.3 1032.7 0.0000 0.0000
15:19 19.4 10.4 56 4 0.6 1.9 1032.7 0.0000 0.0000
15:29 19 10.8 59 59 0.8 2.8 1032.7 0.0000 0.0000
15:38 19.2 11.5 61 90 1.7 3.9 1032.8 0.0000 0.0000
15:48 18.8 10.6 59 71 0.8 3.6 1033 0.0000 0.0000
15:52 18.7 10.5 59 90 0.8 2.2 1033 0.0000 0.0000
16:19 19.6 11.9 61 90 0.8 2.5 1032.9 0.0000 0.0000
16:29 20.2 11.7 58 103 0.8 3.3 1033.1 0.0000 0.0000
16:40 20.5 11.7 57 69 1.4 2.8 1033.1 0.0000 0.0000
16:49 20.5 11.7 57 90 1.7 3.6 1033.3 0.0000 0.0000
16:59 20 11.2 57 53 0.3 1.4 1033.4 0.0000 0.0000
17:09 20.2 11.2 56 71 0.6 2.2 1033.4 0.0000 0.0000
17:20 19.8 10.8 56 90 0.3 1.4 1033.5 0.0000 0.0000
17:30 19.4 10.9 58 50 0.3 1.7 1033.6 0.0000 0.0000
17:40 18.8 10.9 60 79 0.8 2.2 1033.8 0.0000 0.0000
17:50 18.5 10.6 60 74 1.4 2.5 1033.8 0.0000 0.0000
18:00 19.2 11.8 62 90 0.3 1.7 1033.8 0.0000 0.0000
18:10 19.7 11.2 58 70 0.6 1.9 1033.9 0.0000 0.0000
18:20 20.3 11.5 57 90 0.3 1.7 1034 0.0000 0.0000
18:31 21.1 11.4 54 90 0.6 2.2 1034 0.0000 0.0000
18:40 21.5 11.5 53 90 0.3 0.8 1034.1 0.0000 0.0000
19:01 22.3 11.4 50 90 0.3 1.9 1034.2 0.0000 0.0000
19:11 21.2 10.4 50 341 0.3 0.8 1034.3 0.0000 0.0000
19:21 20.9 10.1 50 307 0.3 0.6 1034.3 0.0000 0.0000
19:31 21.2 11 52 184 0.3 0.8 1034.4 0.0000 0.0000
19:41 21.2 10.4 50 324 0.6 2.2 1034.6 0.0000 0.0000
20:01 19.4 10.1 55 14 0.3 0.8 1034.7 0.0000 0.0000
20:12 19.2 9.7 54 0 0.3 1034.9 0.0000 0.0000
20:22 19.2 10.5 57 0 0.3 1035 0.0000 0.0000
20:31 19.2 10.7 58 0 0.3 1035.2 0.0000 0.0000
20:41 18.6 10.4 59 0 0.6 1035.4 0.0000 0.0000
20:52 18.2 10.1 59 78 0.8 2.5 1035.5 0.0000 0.0000
21:02 17.2 9.4 60 333 0.3 0.8 1035.5 0.0000 0.0000
21:22 15.2 8.7 65 341 0.3 0.8 1036 0.0000 0.0000
21:32 14.6 8.3 66 270 0.3 0.8 1036.2 0.0000 0.0000
21:42 13.9 8.1 68 320 0.3 0.8 1036 0.0000 0.0000
21:52 13.4 8 70 0 0.6 1036.3 0.0000 0.0000
22:03 12.9 7.8 71 0 0.6 1036.2 0.0000 0.0000
22:13 12.4 7.5 72 0 0.3 1036.4 0.0000 0.0000
22:23 12.1 7.4 73 0 0.3 1036.5 0.0000 0.0000
22:28 12 7.3 73 0 0.3 1036.5 0.0000 0.0000
22:38 11.7 7.2 74 0 0.3 1036.7 0.0000 0.0000
22:48 11.4 6.9 74 0 0.3 1036.7 0.0000 0.0000
22:58 11.2 6.9 75 0 0.3 1036.8 0.0000 0.0000
23:08 10.9 6.6 75 90 0.3 0.8 1036.9 0.0000 0.0000
23:19 10.6 6.7 77 0 0.3 1036.9 0.0000 0.0000
23:29 10.2 6.4 77 0 0.3 1037 0.0000
23:38 10 6.3 78 0 0.3 1037 0.0000
23:49 9.8 6.3 79 0 0.3 1037 0.0000

DAY STATISTIC

2020-05-25
TEMPERATURE
AVERAGE
14.3
HIGH
22.3
19:01
LOW
8.6
00:27
PRESSURE
AVERAGE
1030.1
HIGH
1037.0
23:29
LOW
1021.3
00:27
DEWPOINT
AVERAGE
9.9
HIGH
12.0
09:52
LOW
6.3
23:38
HUMIDITY
AVERAGE
77
HIGH
98
06:20
LOW
50
19:01
WIND SPEED
AVERAGE
0.4
HIGH
1.7
15:38
WIND GUST
AVERAGE
1.5
HIGH
4.4
14:08
WIND DIRECTION
PREVAILING
E
19%
N
15.9
NE
17.5
E
19.0
SE
0.0
S
0.8
SW
1.6
W
13.5
NW
9.5
PRECIPITATION
RAIN HOUR
0.0
RAIN DAY
0.0
TEMPERATURE (°C)
LOW
8.6
HIGH
22.3
AVERAGE
14.3
PRESSURE (hpa)
LOW
1021.3
HIGH
1037.0
AVERAGE
1030.1
DEVICE